createdAt,value
2018-12-23T00:00:47.100Z,84.47
2018-12-23T00:02:58.536Z,84.42
2018-12-23T00:05:11.621Z,84.21
2018-12-23T00:07:22.448Z,84.60
2018-12-23T00:09:33.552Z,83.90
2018-12-23T00:11:44.423Z,84.63
2018-12-23T00:13:55.324Z,83.96
2018-12-23T00:16:06.214Z,84.14
2018-12-23T00:18:17.068Z,84.60
2018-12-23T00:20:27.948Z,84.75
2018-12-23T00:22:38.802Z,84.01
2018-12-23T00:24:49.649Z,84.80
2018-12-23T00:27:00.541Z,85.05
2018-12-23T00:29:11.417Z,84.85
2018-12-23T00:31:22.300Z,83.81
2018-12-23T00:33:33.167Z,83.90
2018-12-23T00:35:44.019Z,84.13
2018-12-23T00:37:54.889Z,83.25
2018-12-23T00:40:05.945Z,83.89
2018-12-23T00:42:16.829Z,84.29
2018-12-23T00:44:27.659Z,84.87
2018-12-23T00:46:38.540Z,83.96
2018-12-23T00:48:49.521Z,83.97
2018-12-23T00:51:00.361Z,83.56
2018-12-23T00:53:11.270Z,84.06
2018-12-23T00:55:22.105Z,83.89
2018-12-23T00:57:32.969Z,83.62
2018-12-23T00:59:43.868Z,84.41
2018-12-23T01:01:54.705Z,83.57
2018-12-23T01:04:05.557Z,83.85
2018-12-23T01:06:16.388Z,84.45
2018-12-23T01:08:27.236Z,84.58
2018-12-23T01:10:38.090Z,84.09
2018-12-23T01:12:48.924Z,84.75
2018-12-23T01:14:59.777Z,84.90
2018-12-23T01:17:10.730Z,85.31
2018-12-23T01:19:21.615Z,84.54
2018-12-23T01:21:32.438Z,84.78
2018-12-23T01:23:43.306Z,84.58
2018-12-23T01:25:54.136Z,84.45
2018-12-23T01:28:04.961Z,84.49
2018-12-23T01:30:15.807Z,84.44
2018-12-23T01:32:26.635Z,85.44
2018-12-23T01:34:37.488Z,84.70
2018-12-23T01:36:48.333Z,84.47
2018-12-23T01:38:59.184Z,84.56
2018-12-23T01:41:10.108Z,84.38
2018-12-23T01:43:20.993Z,85.21
2018-12-23T01:45:31.958Z,85.08
2018-12-23T01:47:42.793Z,84.15
2018-12-23T01:49:53.691Z,84.62
2018-12-23T01:52:04.570Z,84.77
2018-12-23T01:54:15.653Z,84.38
2018-12-23T01:56:26.580Z,84.81
2018-12-23T01:58:37.393Z,84.24
2018-12-23T02:00:48.233Z,84.46
2018-12-23T02:02:59.073Z,84.19
2018-12-23T02:05:09.929Z,83.97
2018-12-23T02:07:20.772Z,84.62
2018-12-23T02:09:31.646Z,83.89
2018-12-23T02:11:42.485Z,84.12
2018-12-23T02:13:53.304Z,84.30
2018-12-23T02:16:04.153Z,84.20
2018-12-23T02:18:14.978Z,84.30
2018-12-23T02:20:26.064Z,84.25
2018-12-23T02:22:36.883Z,84.59
2018-12-23T02:24:47.747Z,84.39
2018-12-23T02:26:58.578Z,85.13
2018-12-23T02:29:09.428Z,84.57
2018-12-23T02:31:20.493Z,84.55
2018-12-23T02:33:31.485Z,85.29
2018-12-23T02:35:42.334Z,85.60
2018-12-23T02:37:53.482Z,85.15
2018-12-23T02:40:04.448Z,84.54
2018-12-23T02:42:15.278Z,85.28
2018-12-23T02:44:26.132Z,84.54
2018-12-23T02:46:37.006Z,84.88
2018-12-23T02:48:47.857Z,85.16
2018-12-23T02:50:58.685Z,84.71
2018-12-23T02:53:09.616Z,84.93
2018-12-23T02:55:20.446Z,84.53
2018-12-23T02:57:31.312Z,85.03
2018-12-23T02:59:42.134Z,84.85
2018-12-23T03:01:52.982Z,84.34
2018-12-23T03:04:03.819Z,84.99
2018-12-23T03:06:14.868Z,84.49
2018-12-23T03:08:25.763Z,83.96
2018-12-23T03:10:36.659Z,84.26
2018-12-23T03:12:47.634Z,83.48
2018-12-23T03:14:58.461Z,83.26
2018-12-23T03:17:09.307Z,83.21
2018-12-23T03:19:20.298Z,83.11
2018-12-23T03:21:31.112Z,83.90
2018-12-23T03:23:41.970Z,83.88
2018-12-23T03:25:52.932Z,83.59
2018-12-23T03:28:03.894Z,83.71
2018-12-23T03:30:14.726Z,82.65
2018-12-23T03:32:25.691Z,83.02
2018-12-23T03:34:36.636Z,83.43
2018-12-23T03:36:47.462Z,83.38
2018-12-23T03:38:58.325Z,82.65
2018-12-23T03:41:09.159Z,83.45
2018-12-23T03:43:20.006Z,83.17
2018-12-23T03:45:30.885Z,83.39
2018-12-23T03:47:41.700Z,83.18
2018-12-23T03:49:52.544Z,83.36
2018-12-23T03:52:03.369Z,82.69
2018-12-23T03:54:14.201Z,82.56
2018-12-23T03:56:25.142Z,82.84
2018-12-23T03:58:36.009Z,82.37
2018-12-23T04:00:46.974Z,82.45
2018-12-23T04:02:57.797Z,82.60
2018-12-23T04:05:08.645Z,82.43
2018-12-23T04:07:19.470Z,82.44
2018-12-23T04:09:30.415Z,82.97
2018-12-23T04:11:41.244Z,82.36
2018-12-23T04:13:52.056Z,82.33
2018-12-23T04:16:02.905Z,82.72
2018-12-23T04:18:13.750Z,82.42
2018-12-23T04:20:24.581Z,82.75
2018-12-23T04:22:35.437Z,83.09
2018-12-23T04:24:46.380Z,82.77
2018-12-23T04:26:57.203Z,83.43
2018-12-23T04:29:08.024Z,83.88
2018-12-23T04:31:18.877Z,83.64
2018-12-23T04:33:29.699Z,83.75
2018-12-23T04:35:40.613Z,83.57
2018-12-23T04:37:51.428Z,83.87
2018-12-23T04:40:02.540Z,83.47
2018-12-23T04:42:13.467Z,84.50
2018-12-23T04:44:24.298Z,83.65
2018-12-23T04:46:35.256Z,84.62
2018-12-23T04:48:46.421Z,84.16
2018-12-23T04:50:57.268Z,84.23
2018-12-23T04:53:08.107Z,84.11
2018-12-23T04:55:18.922Z,84.08
2018-12-23T04:57:29.769Z,84.95
2018-12-23T04:59:40.601Z,84.53
2018-12-23T05:01:51.446Z,84.35
2018-12-23T05:04:02.433Z,84.69
2018-12-23T05:06:13.285Z,83.92
2018-12-23T05:08:24.093Z,84.68
2018-12-23T05:10:34.904Z,84.62
2018-12-23T05:12:45.749Z,83.89
2018-12-23T05:14:56.641Z,84.52
2018-12-23T05:17:07.487Z,84.27
2018-12-23T05:19:18.310Z,85.20
2018-12-23T05:21:29.265Z,85.31
2018-12-23T05:23:40.098Z,84.46
2018-12-23T05:25:51.059Z,84.99
2018-12-23T05:28:01.897Z,84.84
2018-12-23T05:30:12.713Z,85.49
2018-12-23T05:32:23.759Z,84.37
2018-12-23T05:34:34.592Z,84.60
2018-12-23T05:36:52.439Z,84.97
2018-12-23T05:38:58.381Z,84.87
2018-12-23T05:41:09.216Z,85.14
2018-12-23T05:43:20.056Z,84.59
2018-12-23T05:45:30.897Z,84.76
2018-12-23T05:47:41.800Z,83.91
2018-12-23T05:49:52.621Z,84.34
2018-12-23T05:52:03.474Z,84.42
2018-12-23T05:54:14.293Z,84.42
2018-12-23T05:56:25.096Z,83.63
2018-12-23T05:58:35.929Z,82.95
2018-12-23T06:00:46.745Z,83.36
2018-12-23T06:02:57.579Z,83.22
2018-12-23T06:05:08.413Z,83.46
2018-12-23T06:07:19.221Z,83.64
2018-12-23T06:09:30.063Z,83.75
2018-12-23T06:11:40.899Z,83.23
2018-12-23T06:13:51.761Z,83.64
2018-12-23T06:16:02.629Z,83.06
2018-12-23T06:18:13.458Z,83.15
2018-12-23T06:20:24.311Z,83.40
2018-12-23T06:22:35.130Z,83.99
2018-12-23T06:24:45.979Z,83.46
2018-12-23T06:26:56.836Z,84.13
2018-12-23T06:29:07.677Z,84.15
2018-12-23T06:31:18.504Z,84.21
2018-12-23T06:33:29.483Z,84.31
2018-12-23T06:35:40.419Z,83.44
2018-12-23T06:37:51.300Z,83.57
2018-12-23T06:40:02.284Z,83.76
2018-12-23T06:42:13.126Z,84.59
2018-12-23T06:44:23.964Z,84.59
2018-12-23T06:46:34.818Z,84.82
2018-12-23T06:48:45.709Z,85.07
2018-12-23T06:50:57.039Z,84.49
2018-12-23T06:53:07.872Z,84.36
2018-12-23T06:55:18.736Z,84.89
2018-12-23T06:57:29.591Z,84.67
2018-12-23T06:59:40.421Z,84.34
2018-12-23T07:01:51.263Z,84.95
2018-12-23T07:04:02.109Z,84.70
2018-12-23T07:06:12.955Z,84.85
2018-12-23T07:08:23.808Z,84.92
2018-12-23T07:10:34.636Z,85.58
2018-12-23T07:12:45.471Z,85.33
2018-12-23T07:14:56.293Z,85.33
2018-12-23T07:17:07.249Z,85.44
2018-12-23T07:19:18.212Z,84.86
2018-12-23T07:21:29.157Z,85.35
2018-12-23T07:23:39.980Z,84.69
2018-12-23T07:25:50.837Z,85.38
2018-12-23T07:28:01.660Z,84.60
2018-12-23T07:30:12.508Z,84.63
2018-12-23T07:32:23.382Z,84.34
2018-12-23T07:34:34.236Z,85.12
2018-12-23T07:36:49.458Z,85.30
2018-12-23T07:38:57.959Z,84.97
2018-12-23T07:41:08.831Z,84.92
2018-12-23T07:43:19.684Z,84.05
2018-12-23T07:45:30.540Z,85.09
2018-12-23T07:47:41.405Z,84.75
2018-12-23T07:49:52.227Z,84.58
2018-12-23T07:52:03.090Z,84.65
2018-12-23T07:54:13.914Z,84.78
2018-12-23T07:56:24.748Z,84.23
2018-12-23T07:58:35.700Z,84.02
2018-12-23T08:00:46.538Z,84.50
2018-12-23T08:02:57.427Z,84.85
2018-12-23T08:05:08.350Z,84.95
2018-12-23T08:07:19.207Z,85.03
2018-12-23T08:09:30.043Z,84.97
2018-12-23T08:11:40.896Z,84.28
2018-12-23T08:13:51.853Z,84.17
2018-12-23T08:16:04.741Z,84.64
2018-12-23T08:18:15.575Z,84.30
2018-12-23T08:20:26.424Z,83.89
2018-12-23T08:22:37.285Z,84.29
2018-12-23T08:24:48.117Z,84.36
2018-12-23T08:26:58.957Z,84.02
2018-12-23T08:29:09.821Z,83.34
2018-12-23T08:31:20.662Z,83.30
2018-12-23T08:33:31.625Z,83.05
2018-12-23T08:35:42.456Z,83.12
2018-12-23T08:37:53.317Z,83.05
2018-12-23T08:40:04.164Z,82.52
2018-12-23T08:42:15.053Z,83.13
2018-12-23T08:44:25.912Z,83.26
2018-12-23T08:46:39.302Z,82.59
2018-12-23T08:48:49.616Z,81.96
2018-12-23T08:51:00.520Z,82.75
2018-12-23T08:53:11.371Z,82.40
2018-12-23T08:55:22.244Z,82.69
2018-12-23T08:57:33.085Z,82.51
2018-12-23T08:59:44.000Z,82.12
2018-12-23T09:01:54.858Z,81.47
2018-12-23T09:04:05.692Z,80.91
2018-12-23T09:06:16.558Z,81.58
2018-12-23T09:08:27.397Z,81.45
2018-12-23T09:10:38.256Z,81.43
2018-12-23T09:12:49.090Z,81.63
2018-12-23T09:14:59.972Z,81.32
2018-12-23T09:17:10.815Z,80.76
2018-12-23T09:19:21.665Z,80.62
2018-12-23T09:21:32.549Z,80.31
2018-12-23T09:23:43.380Z,80.04
2018-12-23T09:25:54.229Z,79.60
2018-12-23T09:28:05.078Z,79.90
2018-12-23T09:30:15.952Z,78.88
2018-12-23T09:32:26.816Z,78.68
2018-12-23T09:34:37.813Z,81.16
2018-12-23T09:36:48.862Z,76.47
2018-12-23T09:38:59.709Z,75.04
2018-12-23T09:41:10.588Z,75.23
2018-12-23T09:43:21.445Z,75.58
2018-12-23T09:45:32.292Z,75.20
2018-12-23T09:47:43.154Z,74.73
2018-12-23T09:49:53.992Z,76.03
2018-12-23T09:52:04.952Z,73.97
2018-12-23T09:54:15.794Z,74.19
2018-12-23T09:56:26.637Z,74.23
2018-12-23T09:58:37.502Z,74.27
2018-12-23T10:00:48.356Z,74.68
2018-12-23T10:02:59.234Z,74.21
2018-12-23T10:05:10.114Z,74.46
2018-12-23T10:07:20.959Z,74.05
2018-12-23T10:09:31.792Z,74.38
2018-12-23T10:11:42.661Z,74.58
2018-12-23T10:13:53.529Z,74.36
2018-12-23T10:16:04.379Z,74.36
2018-12-23T10:18:15.260Z,74.70
2018-12-23T10:20:26.109Z,74.09
2018-12-23T10:22:36.971Z,73.23
2018-12-23T10:24:47.841Z,73.95
2018-12-23T10:26:58.668Z,74.72
2018-12-23T10:29:09.538Z,75.27
2018-12-23T10:31:20.397Z,75.19
2018-12-23T10:33:31.247Z,74.76
2018-12-23T10:35:42.096Z,74.46
2018-12-23T10:37:52.946Z,74.73
2018-12-23T10:40:05.180Z,75.35
2018-12-23T10:42:16.012Z,74.24
2018-12-23T10:44:26.895Z,74.82
2018-12-23T10:46:37.750Z,74.45
2018-12-23T10:48:48.628Z,74.35
2018-12-23T10:50:59.478Z,73.60
2018-12-23T10:53:10.340Z,73.99
2018-12-23T10:55:21.220Z,73.24
2018-12-23T10:57:32.108Z,74.04
2018-12-23T10:59:42.997Z,73.20
2018-12-23T11:01:53.949Z,74.62
2018-12-23T11:04:04.855Z,73.01
2018-12-23T11:06:15.715Z,73.52
2018-12-23T11:08:27.065Z,73.76
2018-12-23T11:10:38.241Z,74.37
2018-12-23T11:12:49.076Z,73.03
2018-12-23T11:14:59.950Z,74.44
2018-12-23T11:17:10.792Z,73.37
2018-12-23T11:19:21.764Z,73.58
2018-12-23T11:21:32.623Z,72.97
2018-12-23T11:23:43.571Z,73.69
2018-12-23T11:25:54.429Z,73.21
2018-12-23T11:28:05.316Z,72.54
2018-12-23T11:30:16.173Z,72.68
2018-12-23T11:32:27.059Z,72.84
2018-12-23T11:34:37.934Z,72.82
2018-12-23T11:36:48.782Z,72.56
2018-12-23T11:38:59.625Z,72.51
2018-12-23T11:41:10.486Z,73.26
2018-12-23T11:43:21.321Z,73.36
2018-12-23T11:45:32.178Z,73.88
2018-12-23T11:47:43.035Z,75.02
2018-12-23T11:49:53.881Z,75.19
2018-12-23T11:52:04.762Z,75.25
2018-12-23T11:54:15.599Z,76.03
2018-12-23T11:56:26.474Z,75.81
2018-12-23T11:58:37.306Z,76.03
2018-12-23T12:00:48.181Z,77.29
2018-12-23T12:02:59.068Z,77.70
2018-12-23T12:05:09.927Z,78.03
2018-12-23T12:07:20.779Z,77.99
2018-12-23T12:09:31.640Z,78.00
2018-12-23T12:11:42.534Z,77.79
2018-12-23T12:13:53.398Z,78.92
2018-12-23T12:16:04.283Z,79.14
2018-12-23T12:18:15.157Z,78.37
2018-12-23T12:20:25.974Z,77.46
2018-12-23T12:22:36.844Z,78.31
2018-12-23T12:24:47.689Z,78.32
2018-12-23T12:26:58.564Z,79.39
2018-12-23T12:29:10.933Z,79.41
2018-12-23T12:31:22.070Z,79.20
2018-12-23T12:33:32.964Z,78.63
2018-12-23T12:36:19.790Z,78.27
2018-12-23T12:38:30.735Z,77.86
2018-12-23T12:40:41.657Z,78.25
2018-12-23T12:42:52.687Z,78.49
2018-12-23T12:45:45.260Z,78.03
2018-12-23T12:47:56.228Z,77.40
2018-12-23T12:50:07.167Z,76.67
2018-12-23T12:52:18.120Z,77.56
2018-12-23T12:54:29.079Z,77.97
2018-12-23T12:56:40.050Z,78.32
2018-12-23T12:58:51.010Z,78.77
2018-12-23T13:01:01.948Z,78.49
2018-12-23T13:03:12.886Z,78.53
2018-12-23T13:05:23.852Z,78.87
2018-12-23T13:07:34.762Z,79.35
2018-12-23T13:09:45.699Z,79.11
2018-12-23T13:11:56.640Z,79.21
2018-12-23T13:14:07.609Z,79.19
2018-12-23T13:16:18.573Z,79.51
2018-12-23T13:18:29.499Z,79.83
2018-12-23T13:20:40.468Z,80.13
2018-12-23T13:22:51.408Z,80.34
2018-12-23T13:25:02.567Z,80.20
2018-12-23T13:27:13.524Z,80.58
2018-12-23T13:29:24.511Z,81.32
2018-12-23T13:31:35.449Z,81.65
2018-12-23T13:33:46.382Z,81.86
2018-12-23T13:35:57.396Z,81.91
2018-12-23T13:38:08.351Z,82.11
2018-12-23T13:41:00.957Z,82.21
2018-12-23T13:43:53.537Z,82.34
2018-12-23T13:46:46.193Z,82.83
2018-12-23T13:49:36.869Z,83.07
2018-12-23T13:52:27.542Z,83.87
2018-12-23T13:55:18.197Z,84.17
2018-12-23T13:58:08.864Z,84.73
2018-12-23T14:00:59.539Z,84.97
2018-12-23T14:03:50.205Z,85.27
2018-12-23T14:06:40.891Z,85.51
2018-12-23T14:09:33.499Z,85.71
2018-12-23T14:12:04.297Z,86.08
2018-12-23T14:14:15.229Z,86.16
2018-12-23T14:16:26.169Z,86.23
2018-12-23T14:18:37.123Z,86.30
2018-12-23T14:20:48.058Z,86.57
2018-12-23T14:22:59.049Z,86.25
2018-12-23T14:25:09.998Z,86.25
2018-12-23T14:27:20.976Z,86.09
2018-12-23T14:29:32.031Z,86.07
2018-12-23T14:31:42.989Z,86.13
2018-12-23T14:33:54.041Z,86.01
2018-12-23T14:36:04.968Z,85.89
2018-12-23T14:38:15.914Z,85.75
2018-12-23T14:40:26.834Z,85.34
2018-12-23T14:42:37.782Z,85.13
2018-12-23T14:44:48.827Z,85.75
2018-12-23T14:46:59.761Z,85.85
2018-12-23T14:49:10.721Z,85.83
2018-12-23T14:51:21.778Z,85.69
2018-12-23T14:53:32.726Z,85.69
2018-12-23T14:55:43.689Z,85.72
2018-12-23T14:57:54.625Z,85.99
2018-12-23T15:00:47.246Z,85.93
2018-12-23T15:02:58.160Z,85.83
2018-12-23T15:05:09.227Z,85.77
2018-12-23T15:07:20.184Z,85.90
2018-12-23T15:09:34.432Z,86.01
2018-12-23T15:11:43.953Z,85.88
2018-12-23T15:13:54.898Z,86.08
2018-12-23T15:16:05.868Z,85.96
2018-12-23T15:18:16.800Z,86.22
2018-12-23T15:20:27.755Z,86.28
2018-12-23T15:22:38.698Z,86.10
2018-12-23T15:24:49.747Z,86.00
2018-12-23T15:27:00.693Z,85.91
2018-12-23T15:29:11.731Z,86.00
2018-12-23T15:31:22.709Z,86.24
2018-12-23T15:33:33.694Z,86.36
2018-12-23T15:35:44.651Z,86.61
2018-12-23T15:37:55.546Z,86.68
2018-12-23T15:40:06.516Z,86.81
2018-12-23T15:42:17.485Z,86.94
2018-12-23T15:44:28.422Z,87.18
2018-12-23T15:46:39.482Z,87.39
2018-12-23T15:48:50.428Z,87.53
2018-12-23T15:51:01.390Z,87.61
2018-12-23T15:53:12.346Z,87.49
2018-12-23T15:55:23.309Z,87.58
2018-12-23T15:57:34.281Z,87.68
2018-12-23T15:59:45.398Z,87.78
2018-12-23T16:01:56.451Z,87.67
2018-12-23T16:04:07.382Z,87.79
2018-12-23T16:06:18.349Z,87.72
2018-12-23T16:08:29.301Z,87.88
2018-12-23T16:10:40.273Z,88.39
2018-12-23T16:12:51.224Z,88.66
2018-12-23T16:15:43.811Z,88.83
2018-12-23T16:17:54.781Z,88.91
2018-12-23T16:20:47.360Z,88.98
2018-12-23T16:22:58.312Z,89.17
2018-12-23T16:25:09.242Z,89.51
2018-12-23T16:27:20.224Z,89.66
2018-12-23T16:29:31.190Z,89.81
2018-12-23T16:31:42.130Z,90.14
2018-12-23T16:33:53.090Z,90.38
2018-12-23T16:36:04.135Z,90.50
2018-12-23T16:38:15.083Z,90.56
2018-12-23T16:40:26.054Z,90.56
2018-12-23T16:42:36.977Z,90.60
2018-12-23T16:44:47.923Z,90.66
2018-12-23T16:46:58.876Z,90.70
2018-12-23T16:49:09.930Z,90.74
2018-12-23T16:51:21.018Z,90.72
2018-12-23T16:53:31.961Z,90.66
2018-12-23T16:55:42.908Z,90.65
2018-12-23T16:57:53.839Z,90.64
2018-12-23T17:00:46.442Z,90.57
2018-12-23T17:02:57.386Z,90.61
2018-12-23T17:05:08.352Z,90.75
2018-12-23T17:07:19.301Z,90.83
2018-12-23T17:09:30.261Z,90.98
2018-12-23T17:11:41.244Z,91.26
2018-12-23T17:13:52.193Z,91.48
2018-12-23T17:16:03.140Z,91.63
2018-12-23T17:18:14.095Z,91.66
2018-12-23T17:20:25.063Z,91.76
2018-12-23T17:22:35.990Z,91.80
2018-12-23T17:24:47.023Z,91.92
2018-12-23T17:26:57.995Z,92.03
2018-12-23T17:29:08.944Z,92.22
2018-12-23T17:31:19.871Z,92.29
2018-12-23T17:33:30.790Z,92.32
2018-12-23T17:35:41.765Z,92.38
2018-12-23T17:37:52.696Z,92.50
2018-12-23T17:40:45.323Z,92.57
2018-12-23T17:42:56.273Z,92.61
2018-12-23T17:45:07.200Z,92.64
2018-12-23T17:47:18.181Z,92.51
2018-12-23T17:49:29.125Z,92.51
2018-12-23T17:51:40.080Z,92.56
2018-12-23T17:53:51.024Z,92.50
2018-12-23T17:56:01.939Z,92.40
2018-12-23T17:58:12.924Z,92.32
2018-12-23T18:00:23.857Z,92.18
2018-12-23T18:02:34.803Z,92.11
2018-12-23T18:04:45.765Z,91.99
2018-12-23T18:07:03.680Z,91.96
2018-12-23T18:09:09.628Z,91.80
2018-12-23T18:11:20.570Z,91.79
2018-12-23T18:13:31.529Z,91.73
2018-12-23T18:15:42.471Z,91.81
2018-12-23T18:17:53.404Z,91.81
2018-12-23T18:20:46.010Z,91.71
2018-12-23T18:22:56.939Z,91.55
2018-12-23T18:25:07.908Z,91.42
2018-12-23T18:27:18.819Z,91.45
2018-12-23T18:29:29.774Z,91.44
2018-12-23T18:31:40.702Z,91.39
2018-12-23T18:33:51.645Z,91.27
2018-12-23T18:36:02.701Z,91.14
2018-12-23T18:38:13.630Z,91.12
2018-12-23T18:40:24.566Z,91.13
2018-12-23T18:42:35.525Z,91.06
2018-12-23T18:44:46.474Z,91.06
2018-12-23T18:46:57.447Z,90.92
2018-12-23T18:49:08.389Z,90.87
2018-12-23T18:51:19.325Z,90.90
2018-12-23T18:53:30.261Z,90.91
2018-12-23T18:57:58.273Z,91.03
2018-12-23T19:00:50.852Z,91.07
2018-12-23T19:03:01.910Z,91.09
2018-12-23T19:05:12.897Z,91.15
2018-12-23T19:07:23.842Z,91.03
2018-12-23T19:10:16.449Z,90.99
2018-12-23T19:13:07.120Z,90.97
2018-12-23T19:15:57.798Z,90.93
2018-12-23T19:18:50.400Z,90.92
2018-12-23T19:21:43.346Z,90.96
2018-12-23T19:24:35.990Z,91.02
2018-12-23T19:27:26.704Z,91.19
2018-12-23T19:30:19.260Z,91.44
2018-12-23T19:32:51.996Z,91.47
2018-12-23T19:35:44.627Z,91.64
2018-12-23T19:38:17.350Z,91.67
2018-12-23T19:41:08.018Z,91.70
2018-12-23T19:43:58.699Z,91.71
2018-12-23T19:49:11.318Z,91.74
2018-12-23T19:52:03.902Z,91.70
2018-12-23T19:54:54.573Z,91.76
2018-12-23T19:57:45.257Z,91.60
2018-12-23T20:00:37.835Z,91.30
2018-12-23T20:03:28.529Z,91.27
2018-12-23T20:06:19.224Z,91.20
2018-12-23T20:09:09.901Z,91.22
2018-12-23T20:12:00.567Z,91.05
2018-12-23T20:14:53.357Z,91.02
2018-12-23T20:17:45.955Z,91.04
2018-12-23T20:20:36.685Z,90.94
2018-12-23T20:23:27.394Z,90.88
2018-12-23T20:26:18.089Z,90.68
2018-12-23T20:29:08.776Z,90.51
2018-12-23T20:32:01.398Z,90.43
2018-12-23T20:34:53.948Z,90.51
2018-12-23T20:37:46.539Z,90.51
2018-12-23T20:40:39.138Z,90.73
2018-12-23T20:43:29.785Z,90.73
2018-12-23T20:46:20.488Z,90.81
2018-12-23T20:49:11.174Z,90.69
2018-12-23T20:52:01.894Z,90.46
2018-12-23T20:54:54.444Z,90.28
2018-12-23T20:57:47.035Z,90.03
2018-12-23T21:00:39.626Z,89.88
2018-12-23T21:03:32.496Z,89.93
2018-12-23T21:06:23.151Z,90.05
2018-12-23T21:09:15.757Z,90.20
2018-12-23T21:12:06.430Z,90.23
2018-12-23T21:14:59.015Z,90.27
2018-12-23T21:17:51.633Z,90.17
2018-12-23T21:20:44.221Z,90.18
2018-12-23T21:23:34.909Z,90.06
2018-12-23T21:26:25.596Z,89.92
2018-12-23T21:29:18.160Z,89.72
2018-12-23T21:32:10.740Z,89.60
2018-12-23T21:35:01.443Z,89.51
2018-12-23T21:37:52.097Z,89.37
2018-12-23T21:40:42.800Z,89.15
2018-12-23T21:43:33.462Z,88.85
2018-12-23T21:46:24.267Z,88.55
2018-12-23T21:49:16.856Z,88.52
2018-12-23T21:52:07.531Z,88.48
2018-12-23T21:55:00.156Z,88.34
2018-12-23T21:57:52.689Z,88.33
2018-12-23T22:00:45.262Z,88.18
2018-12-23T22:03:37.828Z,88.04
2018-12-23T22:06:30.431Z,87.87
2018-12-23T22:09:23.040Z,87.97
2018-12-23T22:12:15.638Z,88.03
2018-12-23T22:14:26.610Z,87.92
2018-12-23T22:16:37.562Z,87.75
2018-12-23T22:18:48.481Z,87.53
2018-12-23T22:20:59.440Z,87.70
2018-12-23T22:23:10.403Z,87.70
2018-12-23T22:25:21.351Z,87.74
2018-12-23T22:27:32.312Z,87.78
2018-12-23T22:29:43.234Z,87.95
2018-12-23T22:31:54.216Z,88.06
2018-12-23T22:34:05.155Z,88.04
2018-12-23T22:36:16.114Z,88.13
2018-12-23T22:38:27.183Z,88.40
2018-12-23T22:41:19.773Z,88.58
2018-12-23T22:43:30.744Z,88.73
2018-12-23T22:45:41.691Z,88.77
2018-12-23T22:47:52.658Z,89.08
2018-12-23T22:50:03.568Z,89.17
2018-12-23T22:52:14.607Z,89.16
2018-12-23T22:54:25.533Z,89.12
2018-12-23T22:56:36.466Z,89.19
2018-12-23T22:58:47.419Z,89.15
2018-12-23T23:00:58.476Z,89.23
2018-12-23T23:03:09.504Z,89.20
2018-12-23T23:05:20.396Z,89.08
2018-12-23T23:07:31.367Z,89.09
2018-12-23T23:09:42.312Z,89.13
2018-12-23T23:11:53.245Z,89.06
2018-12-23T23:14:04.188Z,88.83
2018-12-23T23:16:15.152Z,88.75
2018-12-23T23:18:26.098Z,88.65
2018-12-23T23:20:37.108Z,88.70
2018-12-23T23:22:48.039Z,88.44
2018-12-23T23:24:58.986Z,88.34
2018-12-23T23:27:10.051Z,88.12
2018-12-23T23:29:21.067Z,87.78
2018-12-23T23:31:32.006Z,87.87
2018-12-23T23:33:42.987Z,87.78
2018-12-23T23:35:53.907Z,87.69
2018-12-23T23:38:04.839Z,87.62
2018-12-23T23:40:15.802Z,87.79
2018-12-23T23:42:26.723Z,87.86
2018-12-23T23:44:37.667Z,88.00
2018-12-23T23:46:48.652Z,88.04
2018-12-23T23:48:59.581Z,88.00
2018-12-23T23:51:10.522Z,87.94
2018-12-23T23:53:21.456Z,88.07
2018-12-23T23:55:32.422Z,88.27
2018-12-23T23:57:43.324Z,88.44
2018-12-23T23:59:54.285Z,88.54
